createdAt,value
2022-08-23T00:00:26.141Z,999.4335938
2022-08-23T00:01:24.991Z,999.4682617
2022-08-23T00:02:23.424Z,999.444397
2022-08-23T00:03:21.702Z,999.4603882
2022-08-23T00:04:16.058Z,999.4174805
2022-08-23T00:06:15.709Z,999.449707
2022-08-23T00:07:10.259Z,999.4682617
2022-08-23T00:08:17.709Z,999.4335938
2022-08-23T00:09:20.666Z,999.4093628
2022-08-23T00:11:15.435Z,999.4199829
2022-08-23T00:12:38.397Z,999.361084
2022-08-23T00:13:19.273Z,999.4039917
2022-08-23T00:14:17.405Z,999.3746338
2022-08-23T00:14:45.394Z,999.3959961
2022-08-23T00:15:43.407Z,999.4014282
2022-08-23T00:16:43.522Z,999.4468994
2022-08-23T00:17:40.302Z,999.3959961
2022-08-23T00:18:49.314Z,999.390686
2022-08-23T00:18:49.585Z,999.390686
2022-08-23T00:19:43.651Z,999.3531494
2022-08-23T00:21:40.497Z,999.3610229
2022-08-23T00:22:36.006Z,999.3181152
2022-08-23T00:23:36.506Z,999.3557129
2022-08-23T00:24:31.798Z,999.3478394
2022-08-23T00:24:40.770Z,999.3478394
2022-08-23T00:26:31.600Z,999.3531494
2022-08-23T00:27:31.313Z,999.425415
2022-08-23T00:28:32.513Z,999.3933105
2022-08-23T00:29:37.266Z,999.3074951
2022-08-23T00:31:36.366Z,999.3933105
2022-08-23T00:32:31.425Z,999.3771973
2022-08-23T00:33:33.499Z,999.3342896
2022-08-23T00:34:29.982Z,999.3449707
2022-08-23T00:36:30.111Z,999.262085
2022-08-23T00:37:33.464Z,999.326416
2022-08-23T00:38:32.936Z,999.3131104
2022-08-23T00:38:35.262Z,999.3131104
2022-08-23T00:39:36.265Z,999.2675171
2022-08-23T00:41:33.688Z,999.2167358
2022-08-23T00:42:37.367Z,999.2567139
2022-08-23T00:43:33.562Z,999.2113037
2022-08-23T00:44:34.088Z,999.2407227
2022-08-23T00:46:38.943Z,999.2460938
2022-08-23T00:47:36.264Z,999.1791992
2022-08-23T00:48:38.112Z,999.2435303
2022-08-23T00:49:37.578Z,999.1978149
2022-08-23T00:50:34.994Z,999.1709595
2022-08-23T00:51:52.194Z,999.1952515
2022-08-23T00:51:52.648Z,999.1952515
2022-08-23T00:51:53.178Z,999.1952515
2022-08-23T00:52:37.361Z,999.2113037
2022-08-23T00:53:38.211Z,999.2514038
2022-08-23T00:54:38.848Z,999.2595825
2022-08-23T00:56:05.536Z,999.2192383
2022-08-23T00:56:47.957Z,999.1495361
2022-08-23T00:57:52.759Z,999.2299805
2022-08-23T00:58:53.080Z,999.2650146
2022-08-23T01:00:48.975Z,999.286377
2022-08-23T01:01:50.646Z,999.2675171
2022-08-23T01:02:47.895Z,999.2648926
2022-08-23T01:03:47.847Z,999.286377
2022-08-23T01:03:57.125Z,999.286377
2022-08-23T01:04:04.494Z,999.286377
2022-08-23T01:05:44.476Z,999.2703247
2022-08-23T01:06:48.811Z,999.3425293
2022-08-23T01:07:44.359Z,999.2703247
2022-08-23T01:08:45.119Z,999.2781372
2022-08-23T01:09:41.337Z,999.2941895
2022-08-23T01:10:41.665Z,999.3370972
2022-08-23T01:11:39.818Z,999.2728271
2022-08-23T01:12:41.626Z,999.2834473
2022-08-23T01:13:39.559Z,999.3505249
2022-08-23T01:14:38.776Z,999.3798218
2022-08-23T01:15:41.620Z,999.3023682
2022-08-23T01:16:41.714Z,999.3451538
2022-08-23T01:17:37.201Z,999.3043823
2022-08-23T01:18:40.741Z,999.2804565
2022-08-23T01:19:36.438Z,999.3928833
2022-08-23T01:21:36.438Z,999.2750244
2022-08-23T01:22:35.742Z,999.3125
2022-08-23T01:23:31.088Z,999.3150024
2022-08-23T01:25:06.052Z,999.3338013
2022-08-23T01:25:07.110Z,999.3338013
2022-08-23T01:26:29.494Z,999.3339233
2022-08-23T01:27:32.202Z,999.4196777
2022-08-23T01:28:27.718Z,999.3418579
2022-08-23T01:29:27.378Z,999.3179932
2022-08-23T01:31:29.812Z,999.3953857
2022-08-23T01:32:25.014Z,999.4464111
2022-08-23T01:33:25.070Z,999.382019
2022-08-23T01:34:24.687Z,999.3845215
2022-08-23T01:35:28.791Z,999.4112549
2022-08-23T01:36:22.626Z,999.4354858
2022-08-23T01:37:25.099Z,999.4299927
2022-08-23T01:38:25.917Z,999.387207
2022-08-23T01:39:23.967Z,999.392395
2022-08-23T01:41:24.004Z,999.3948364
2022-08-23T01:42:23.723Z,999.3573608
2022-08-23T01:43:21.113Z,999.3869019
2022-08-23T01:44:27.432Z,999.3652954
2022-08-23T01:46:14.835Z,999.4351807
2022-08-23T01:46:59.191Z,999.4216919
2022-08-23T01:47:58.195Z,999.3306274
2022-08-23T01:49:04.520Z,999.3520508
2022-08-23T01:49:08.416Z,999.3520508
2022-08-23T01:50:03.333Z,999.3334351
2022-08-23T01:51:01.915Z,999.3359375
2022-08-23T01:52:07.269Z,999.3601685
2022-08-23T01:53:03.794Z,999.3894043
2022-08-23T01:54:05.798Z,999.4320068
2022-08-23T01:56:05.566Z,999.3302612
2022-08-23T01:57:01.868Z,999.3543701
2022-08-23T01:58:04.432Z,999.3595581
2022-08-23T01:59:13.801Z,999.3727417
2022-08-23T02:00:15.600Z,999.3513794
2022-08-23T02:01:17.424Z,999.3512573
2022-08-23T02:02:18.680Z,999.3831787
2022-08-23T02:03:15.815Z,999.3859253
2022-08-23T02:04:16.106Z,999.369873
2022-08-23T02:05:13.695Z,999.428833
2022-08-23T02:05:19.146Z,999.428833
2022-08-23T02:06:17.555Z,999.4206543
2022-08-23T02:07:14.708Z,999.4127197
2022-08-23T02:08:15.672Z,999.4503174
2022-08-23T02:09:19.505Z,999.4798584
2022-08-23T02:11:24.251Z,999.4636841
2022-08-23T02:12:20.120Z,999.4689331
2022-08-23T02:13:21.134Z,999.428833
2022-08-23T02:14:22.540Z,999.4151611
2022-08-23T02:15:16.831Z,999.4312744
2022-08-23T02:16:26.299Z,999.4258423
2022-08-23T02:17:20.214Z,999.409668
2022-08-23T02:18:20.850Z,999.4204712
2022-08-23T02:19:20.460Z,999.4417114
2022-08-23T02:21:24.493Z,999.3505249
2022-08-23T02:24:45.363Z,999.4185791
2022-08-23T02:26:05.150Z,999.4537354
2022-08-23T02:27:05.382Z,999.3573608
2022-08-23T02:28:03.464Z,999.4268188
2022-08-23T02:29:03.458Z,999.4454956
2022-08-23T02:29:59.739Z,999.4050903
2022-08-23T02:31:01.384Z,999.4291992
2022-08-23T02:31:55.725Z,999.453064
2022-08-23T02:32:55.007Z,999.3886108
2022-08-23T02:33:52.909Z,999.3966675
2022-08-23T02:35:05.251Z,999.434082
2022-08-23T02:35:05.619Z,999.434082
2022-08-23T02:36:50.904Z,999.4473267
2022-08-23T02:37:52.802Z,999.4768677
2022-08-23T02:38:48.121Z,999.3723145
2022-08-23T02:39:53.679Z,999.4364624
2022-08-23T02:40:46.202Z,999.3858032
2022-08-23T02:41:44.310Z,999.3453369
2022-08-23T02:42:40.804Z,999.3934326
2022-08-23T02:43:41.249Z,999.4788818
2022-08-23T02:44:37.967Z,999.4656372
2022-08-23T02:46:32.018Z,999.4229736
2022-08-23T02:47:31.061Z,999.4522095
2022-08-23T02:48:25.383Z,999.489502
2022-08-23T02:49:27.410Z,999.4412231
2022-08-23T02:51:21.161Z,999.4679565
2022-08-23T02:52:12.927Z,999.4625244
2022-08-23T02:53:16.035Z,999.5267334
2022-08-23T02:54:10.568Z,999.5026855
2022-08-23T02:55:13.179Z,999.4920044
2022-08-23T02:56:07.457Z,999.5106201
2022-08-23T02:56:21.184Z,999.5106201
2022-08-23T02:56:21.461Z,999.5106201
2022-08-23T02:57:15.362Z,999.524231
2022-08-23T02:58:11.017Z,999.4679565
2022-08-23T02:59:13.280Z,999.4762573
2022-08-23T03:01:10.316Z,999.4065552
2022-08-23T03:02:09.249Z,999.4279785
2022-08-23T03:03:09.627Z,999.4302979
2022-08-23T03:04:03.903Z,999.3981323
2022-08-23T03:06:24.817Z,999.4087524
2022-08-23T03:06:24.952Z,999.4087524
2022-08-23T03:06:25.512Z,999.4087524
2022-08-23T03:07:03.877Z,999.4516602
2022-08-23T03:07:59.276Z,999.4732056
2022-08-23T03:08:58.057Z,999.3637695
2022-08-23T03:09:53.880Z,999.4625244
2022-08-23T03:10:53.300Z,999.435791
2022-08-23T03:11:48.856Z,999.4035645
2022-08-23T03:12:47.848Z,999.3902588
2022-08-23T03:13:46.075Z,999.5078735
2022-08-23T03:14:42.964Z,999.4032593
2022-08-23T03:16:31.237Z,999.4090576
2022-08-23T03:17:20.683Z,999.489502
2022-08-23T03:18:17.249Z,999.4308472
2022-08-23T03:19:12.490Z,999.4016113
2022-08-23T03:21:07.638Z,999.4146729
2022-08-23T03:22:06.884Z,999.3908081
2022-08-23T03:23:10.314Z,999.3934326
2022-08-23T03:24:10.577Z,999.4338379
2022-08-23T03:25:09.069Z,999.4310913
2022-08-23T03:26:12.786Z,999.3803101
2022-08-23T03:27:08.556Z,999.4737549
2022-08-23T03:28:09.443Z,999.3718872
2022-08-23T03:29:05.590Z,999.366394
2022-08-23T03:31:05.306Z,999.4120483
2022-08-23T03:32:07.170Z,999.4412231
2022-08-23T03:33:03.927Z,999.4679565
2022-08-23T03:34:20.997Z,999.4226685
2022-08-23T03:36:12.442Z,999.4226685
2022-08-23T03:37:09.869Z,999.4145508
2022-08-23T03:38:09.497Z,999.3959351
2022-08-23T03:39:04.284Z,999.4065552
2022-08-23T03:40:03.619Z,999.4494629
2022-08-23T03:41:03.602Z,999.4281006
2022-08-23T03:42:06.705Z,999.4467163
2022-08-23T03:43:03.061Z,999.5376587
2022-08-23T03:44:05.972Z,999.5269775
2022-08-23T03:45:02.229Z,999.5592041
2022-08-23T03:46:56.866Z,999.5621948
2022-08-23T03:47:59.659Z,999.5968628
2022-08-23T03:48:59.597Z,999.5432739
2022-08-23T03:49:55.216Z,999.6129761
2022-08-23T03:51:00.932Z,999.5754395
2022-08-23T03:51:56.262Z,999.5943604
2022-08-23T03:52:54.893Z,999.6557617
2022-08-23T03:53:50.149Z,999.5754395
2022-08-23T03:54:49.288Z,999.6210938
2022-08-23T03:55:56.919Z,999.6210938
2022-08-23T03:56:55.714Z,999.6157227
2022-08-23T03:57:54.985Z,999.6074829
2022-08-23T03:58:59.465Z,999.711792
2022-08-23T04:00:47.336Z,999.701416
2022-08-23T04:01:29.059Z,999.7683105
2022-08-23T04:02:30.660Z,999.69104
2022-08-23T04:03:31.505Z,999.7016602
2022-08-23T04:04:29.567Z,999.7123413
2022-08-23T04:06:33.905Z,999.7393188
2022-08-23T04:07:31.808Z,999.7739868
2022-08-23T04:08:34.088Z,999.7471924
2022-08-23T04:09:30.947Z,999.7393188
2022-08-23T04:10:33.274Z,999.8007813
2022-08-23T04:11:29.712Z,999.7952881
2022-08-23T04:12:34.483Z,999.8034668
2022-08-23T04:13:32.933Z,999.7578735
2022-08-23T04:14:34.029Z,999.7578735
2022-08-23T04:15:33.548Z,999.7661133
2022-08-23T04:16:35.826Z,999.7767334
2022-08-23T04:17:40.684Z,999.7524414
2022-08-23T04:18:37.759Z,999.7606201
2022-08-23T04:19:43.073Z,999.784668
2022-08-23T04:21:38.323Z,999.8757935
2022-08-23T04:22:35.921Z,999.8919678
2022-08-23T04:23:38.863Z,999.8198242
2022-08-23T04:24:34.649Z,999.9056396
2022-08-23T04:25:39.853Z,999.8760986
2022-08-23T04:26:36.900Z,999.8493042
2022-08-23T04:27:41.156Z,999.8493042
2022-08-23T04:28:37.516Z,999.8654175
2022-08-23T04:29:39.370Z,999.9110107
2022-08-23T04:31:43.843Z,999.932373
2022-08-23T04:32:47.095Z,999.8198242
2022-08-23T04:33:43.923Z,999.9268799
2022-08-23T04:34:45.799Z,999.937561
2022-08-23T04:34:51.477Z,999.937561
2022-08-23T04:36:51.722Z,999.8973389
2022-08-23T04:36:52.537Z,999.8973389
2022-08-23T04:36:55.343Z,999.8973389
2022-08-23T04:37:44.072Z,999.9937744
2022-08-23T04:38:50.321Z,1000.018127
2022-08-23T04:39:51.770Z,1000.018127
2022-08-23T04:40:51.215Z,1000.007507
2022-08-23T04:41:57.945Z,999.9509277
2022-08-23T04:42:58.808Z,1000.023254
2022-08-23T04:43:59.082Z,1000.089905
2022-08-23T04:45:49.261Z,1000.023621
2022-08-23T04:46:31.783Z,1000.050537
2022-08-23T04:47:29.777Z,999.9835815
2022-08-23T04:48:29.653Z,999.9810791
2022-08-23T04:49:25.046Z,999.9944458
2022-08-23T04:51:31.237Z,1000.061401
2022-08-23T04:52:33.377Z,1000.034363
2022-08-23T04:53:29.633Z,1000.06366
2022-08-23T04:54:30.263Z,1000.050293
2022-08-23T04:56:26.654Z,1000.125183
2022-08-23T04:57:26.557Z,1000.09845
2022-08-23T04:58:22.330Z,1000.116943
2022-08-23T04:59:26.450Z,1000.09845
2022-08-23T05:00:19.887Z,1000.106262
2022-08-23T05:01:19.221Z,1000.095642
2022-08-23T05:02:13.944Z,1000.114502
2022-08-23T05:03:14.332Z,1000.125183
2022-08-23T05:04:12.347Z,1000.141235
2022-08-23T05:06:06.065Z,1000.162842
2022-08-23T05:07:06.792Z,1000.192322
2022-08-23T05:08:02.378Z,1000.246094
2022-08-23T05:09:07.737Z,1000.289001
2022-08-23T05:10:01.014Z,1000.243591
2022-08-23T05:11:58.510Z,1000.265137
2022-08-23T05:12:59.006Z,1000.254517
2022-08-23T05:13:56.893Z,1000.273132
2022-08-23T05:14:59.591Z,1000.265137
2022-08-23T05:16:54.298Z,1000.254517
2022-08-23T05:17:49.438Z,1000.32959
2022-08-23T05:18:50.373Z,1000.265381
2022-08-23T05:19:47.132Z,1000.310791
2022-08-23T05:20:47.358Z,1000.265381
2022-08-23T05:21:40.377Z,1000.201172
2022-08-23T05:22:41.556Z,1000.238586
2022-08-23T05:23:40.264Z,1000.283936
2022-08-23T05:24:37.590Z,1000.257202
2022-08-23T05:26:32.266Z,1000.283936
2022-08-23T05:27:34.386Z,1000.17688
2022-08-23T05:29:01.351Z,1000.332275
2022-08-23T05:29:43.238Z,1000.353821
2022-08-23T05:30:47.891Z,1000.297974
2022-08-23T05:30:56.594Z,1000.297974
2022-08-23T05:30:57.280Z,1000.297974
2022-08-23T05:31:43.091Z,1000.273926
2022-08-23T05:32:38.390Z,1000.300781
2022-08-23T05:33:38.609Z,1000.32782
2022-08-23T05:34:35.680Z,1000.25592
2022-08-23T05:36:36.175Z,1000.381348
2022-08-23T05:37:36.374Z,1000.389832
2022-08-23T05:38:31.572Z,1000.416565
2022-08-23T05:39:36.448Z,1000.408142
2022-08-23T05:41:37.668Z,1000.440613
2022-08-23T05:41:38.026Z,1000.440613
2022-08-23T05:42:29.551Z,1000.42749
2022-08-23T05:43:25.369Z,1000.465149
2022-08-23T05:44:25.687Z,1000.446228
2022-08-23T05:45:23.776Z,1000.481262
2022-08-23T05:46:26.624Z,1000.532043
2022-08-23T05:46:28.453Z,1000.532043
2022-08-23T05:47:24.863Z,1000.486633
2022-08-23T05:48:18.770Z,1000.446411
2022-08-23T05:49:16.896Z,1000.492188
2022-08-23T05:51:14.099Z,1000.414368
2022-08-23T05:52:18.420Z,1000.441223
2022-08-23T05:53:12.845Z,1000.449402
2022-08-23T05:54:15.367Z,1000.476257
2022-08-23T05:55:08.600Z,1000.519043
2022-08-23T05:56:08.448Z,1000.500183
2022-08-23T05:57:04.628Z,1000.489502
2022-08-23T05:58:04.340Z,1000.516357
2022-08-23T05:59:00.969Z,1000.55127
2022-08-23T06:00:00.788Z,1000.615601
2022-08-23T06:01:02.130Z,1000.513855
2022-08-23T06:01:54.863Z,1000.655701
2022-08-23T06:02:58.273Z,1000.529846
2022-08-23T06:03:50.973Z,1000.631775
2022-08-23T06:04:57.429Z,1000.621094
2022-08-23T06:06:47.873Z,1000.664124
2022-08-23T06:07:48.219Z,1000.661316
2022-08-23T06:08:43.683Z,1000.677429
2022-08-23T06:09:44.029Z,1000.62384
2022-08-23T06:10:42.362Z,1000.650635
2022-08-23T06:11:37.804Z,1000.674927
2022-08-23T06:12:38.068Z,1000.706848
2022-08-23T06:13:35.041Z,1000.706848
2022-08-23T06:14:34.261Z,1000.768616
2022-08-23T06:16:28.461Z,1000.688232
2022-08-23T06:17:32.066Z,1000.712158
2022-08-23T06:18:28.657Z,1000.701538
2022-08-23T06:20:07.873Z,1000.74469
2022-08-23T06:22:19.904Z,1000.653564
2022-08-23T06:22:58.541Z,1000.707031
2022-08-23T06:23:58.198Z,1000.650879
2022-08-23T06:24:53.554Z,1000.685608
2022-08-23T06:25:53.629Z,1000.645691
2022-08-23T06:26:47.174Z,1000.677979
2022-08-23T06:27:47.793Z,1000.699402
2022-08-23T06:28:51.063Z,1000.664368
2022-08-23T06:28:51.086Z,1000.664368
2022-08-23T06:29:42.773Z,1000.637573
2022-08-23T06:31:37.423Z,1000.720947
2022-08-23T06:32:31.288Z,1000.728821
2022-08-23T06:33:30.318Z,1000.653748
2022-08-23T06:34:24.711Z,1000.653748
2022-08-23T06:35:38.011Z,1000.659058
2022-08-23T06:35:39.298Z,1000.659058
2022-08-23T06:36:20.841Z,1000.645752
2022-08-23T06:37:14.580Z,1000.702026
2022-08-23T06:38:13.098Z,1000.664368
2022-08-23T06:39:07.085Z,1000.707336
2022-08-23T06:40:08.489Z,1000.763916
2022-08-23T06:42:13.259Z,1000.699402
2022-08-23T06:42:28.007Z,1000.699402
2022-08-23T06:42:58.757Z,1000.731567
2022-08-23T06:43:52.805Z,1000.777039
2022-08-23T06:44:51.350Z,1000.798462
2022-08-23T06:46:46.810Z,1000.814514
2022-08-23T06:47:38.551Z,1000.776978
2022-08-23T06:48:36.371Z,1000.819824
2022-08-23T06:49:33.499Z,1000.817322
2022-08-23T06:49:39.701Z,1000.790466
2022-08-23T06:50:38.614Z,1000.779663
2022-08-23T06:51:34.473Z,1000.833252
2022-08-23T06:52:33.382Z,1000.801086
2022-08-23T06:53:27.751Z,1000.843994
2022-08-23T06:54:26.703Z,1000.768738
2022-08-23T06:56:19.852Z,1000.902893
2022-08-23T06:57:15.043Z,1000.867737
2022-08-23T06:58:16.701Z,1000.835449
2022-08-23T06:59:08.479Z,1000.848877
2022-08-23T07:00:09.854Z,1000.838135
2022-08-23T07:01:01.730Z,1000.878296
2022-08-23T07:02:03.242Z,1000.87561
2022-08-23T07:02:57.568Z,1000.88916
2022-08-23T07:03:57.703Z,1000.867676
2022-08-23T07:04:54.475Z,1000.915771
2022-08-23T07:06:47.810Z,1000.934692
2022-08-23T07:07:44.315Z,1000.875488
2022-08-23T07:08:41.364Z,1000.923767
2022-08-23T07:09:36.713Z,1000.926086
2022-08-23T07:11:30.107Z,1000.88031
2022-08-23T07:12:32.005Z,1000.987671
2022-08-23T07:13:24.297Z,1000.982117
2022-08-23T07:14:26.111Z,1001.008728
2022-08-23T07:15:18.093Z,1001.059631
2022-08-23T07:17:12.952Z,1001.045959
2022-08-23T07:18:14.634Z,1000.994507
2022-08-23T07:19:07.249Z,1001.002502
2022-08-23T07:20:09.365Z,1001.050781
2022-08-23T07:21:04.174Z,1001.098877
2022-08-23T07:22:01.370Z,1001.082581
2022-08-23T07:22:57.606Z,1001.0849
2022-08-23T07:23:55.952Z,1001.06073
2022-08-23T07:24:50.755Z,1001.076721
2022-08-23T07:25:50.487Z,1001.117126
2022-08-23T07:26:45.880Z,1001.046875
2022-08-23T07:27:45.490Z,1001.08728
2022-08-23T07:28:40.778Z,1001.019714
2022-08-23T07:29:40.520Z,1001.067871
2022-08-23T07:31:35.475Z,1001.091797
2022-08-23T07:32:30.388Z,1001.059387
2022-08-23T07:33:33.570Z,1001.088501
2022-08-23T07:35:12.749Z,1001.101563
2022-08-23T07:36:12.194Z,1001.10907
2022-08-23T07:37:11.449Z,1001.054871
2022-08-23T07:37:15.730Z,1001.054871
2022-08-23T07:38:07.646Z,1001.146118
2022-08-23T07:39:03.105Z,1001.218445
2022-08-23T07:40:39.248Z,1001.231079
2022-08-23T07:42:54.623Z,1001.200256
2022-08-23T07:43:35.987Z,1001.194519
2022-08-23T07:44:36.598Z,1001.274841
2022-08-23T07:46:34.398Z,1001.242737
2022-08-23T07:47:36.392Z,1001.263977
2022-08-23T07:48:53.096Z,1001.174866
2022-08-23T07:48:53.441Z,1001.174866
2022-08-23T07:48:53.892Z,1001.174866
2022-08-23T07:49:32.956Z,1001.298096
2022-08-23T07:50:34.619Z,1001.276428
2022-08-23T07:51:31.646Z,1001.283752
2022-08-23T07:52:33.113Z,1001.304993
2022-08-23T07:53:37.661Z,1001.310181
2022-08-23T07:53:37.752Z,1001.310181
2022-08-23T07:54:31.818Z,1001.220947
2022-08-23T07:56:32.931Z,1001.33905
2022-08-23T07:57:27.226Z,1001.322449
2022-08-23T07:58:27.124Z,1001.324524
2022-08-23T07:59:32.738Z,1001.359131
2022-08-23T07:59:34.739Z,1001.359131
2022-08-23T08:01:27.709Z,1001.315552
2022-08-23T08:02:24.557Z,1001.328613
2022-08-23T08:03:26.595Z,1001.315002
2022-08-23T08:04:23.730Z,1001.311951
2022-08-23T08:05:25.246Z,1001.322815
2022-08-23T08:06:24.868Z,1001.352173
2022-08-23T08:07:21.817Z,1001.297974
2022-08-23T08:08:23.565Z,1001.373108
2022-08-23T08:09:20.373Z,1001.38092
2022-08-23T08:10:22.371Z,1001.373108
2022-08-23T08:11:20.530Z,1001.313416
2022-08-23T08:12:21.024Z,1001.361572
2022-08-23T08:13:18.071Z,1001.339783
2022-08-23T08:14:19.828Z,1001.309753
2022-08-23T08:15:17.055Z,1001.325806
2022-08-23T08:17:15.610Z,1001.398132
2022-08-23T08:18:25.637Z,1001.327515
2022-08-23T08:19:19.750Z,1001.234985
2022-08-23T08:20:16.312Z,1001.317993
2022-08-23T08:22:16.370Z,1001.257507
2022-08-23T08:23:17.920Z,1001.281738
2022-08-23T08:24:16.292Z,1001.283752
2022-08-23T08:25:19.666Z,1001.229858
2022-08-23T08:27:16.623Z,1001.337036
2022-08-23T08:28:16.443Z,1001.342163
2022-08-23T08:29:13.776Z,1001.341431
2022-08-23T08:30:16.017Z,1001.257629
2022-08-23T08:31:14.244Z,1001.340637
2022-08-23T08:32:18.307Z,1001.323914
2022-08-23T08:33:13.260Z,1001.315491
2022-08-23T08:34:18.697Z,1001.320618
2022-08-23T08:35:16.224Z,1001.384827
2022-08-23T08:37:19.074Z,1001.347961
2022-08-23T08:38:14.313Z,1001.315186
2022-08-23T08:39:16.508Z,1001.317444
2022-08-23T08:40:14.570Z,1001.40625
2022-08-23T08:42:16.410Z,1001.432495
2022-08-23T08:43:14.573Z,1001.334595
2022-08-23T08:44:18.964Z,1001.363892
2022-08-23T08:45:14.035Z,1001.379822
2022-08-23T08:46:16.586Z,1001.338745
2022-08-23T08:47:14.052Z,1001.422058
2022-08-23T08:48:19.071Z,1001.400146
2022-08-23T08:49:14.382Z,1001.394226
2022-08-23T08:50:19.556Z,1001.399231
2022-08-23T08:51:44.000Z,1001.366333
2022-08-23T08:52:24.500Z,1001.422241
2022-08-23T08:53:23.028Z,1001.386475
2022-08-23T08:54:23.992Z,1001.369873
2022-08-23T08:55:19.958Z,1001.399353
2022-08-23T08:57:16.869Z,1001.398743
2022-08-23T08:58:17.844Z,1001.414856
2022-08-23T08:59:13.894Z,1001.354858
2022-08-23T09:00:14.921Z,1001.433044
2022-08-23T09:02:31.946Z,1001.389038
2022-08-23T09:02:33.154Z,1001.389038
2022-08-23T09:03:11.535Z,1001.4422
2022-08-23T09:04:08.093Z,1001.379089
2022-08-23T09:05:08.982Z,1001.435242
2022-08-23T09:06:05.625Z,1001.489319
2022-08-23T09:07:06.789Z,1001.529236
2022-08-23T09:08:03.363Z,1001.472351
2022-08-23T09:09:04.103Z,1001.539246
2022-08-23T09:10:01.177Z,1001.398132
2022-08-23T09:11:58.119Z,1001.444275
2022-08-23T09:12:56.577Z,1001.460022
2022-08-23T09:14:00.085Z,1001.359985
2022-08-23T09:14:53.634Z,1001.435181
2022-08-23T09:16:51.599Z,1001.427002
2022-08-23T09:17:54.479Z,1001.432007
2022-08-23T09:18:48.172Z,1001.491089
2022-08-23T09:19:51.626Z,1001.396118
2022-08-23T09:21:43.962Z,1001.403931
2022-08-23T09:22:44.781Z,1001.360962
2022-08-23T09:23:40.982Z,1001.423096
2022-08-23T09:24:44.258Z,1001.447021
2022-08-23T09:25:38.556Z,1001.434143
2022-08-23T09:26:41.382Z,1001.47406
2022-08-23T09:27:35.069Z,1001.460144
2022-08-23T09:28:33.564Z,1001.406067
2022-08-23T09:29:34.606Z,1001.413879
2022-08-23T09:31:08.300Z,1001.438904
2022-08-23T09:33:26.914Z,1001.45697
2022-08-23T09:34:08.857Z,1001.505005
2022-08-23T09:35:11.528Z,1001.477966
2022-08-23T09:37:10.568Z,1001.467957
2022-08-23T09:38:07.921Z,1001.389709
2022-08-23T09:39:09.678Z,1001.503967
2022-08-23T09:40:06.483Z,1001.476929
2022-08-23T09:41:08.223Z,1001.419006
2022-08-23T09:42:05.492Z,1001.449219
2022-08-23T09:43:07.713Z,1001.487244
2022-08-23T09:44:05.093Z,1001.506165
2022-08-23T09:45:06.429Z,1001.436096
2022-08-23T09:46:03.758Z,1001.369141
2022-08-23T09:47:04.883Z,1001.445313
2022-08-23T09:48:02.257Z,1001.407166
2022-08-23T09:49:04.036Z,1001.413269
2022-08-23T09:50:00.532Z,1001.408264
2022-08-23T09:51:58.859Z,1001.530029
2022-08-23T09:53:00.354Z,1001.475952
2022-08-23T09:53:57.081Z,1001.432861
2022-08-23T09:54:58.449Z,1001.405884
2022-08-23T09:55:57.836Z,1001.436096
2022-08-23T09:56:54.997Z,1001.340759
2022-08-23T09:57:55.805Z,1001.410767
2022-08-23T09:58:52.229Z,1001.391968
2022-08-23T09:59:54.203Z,1001.408264
2022-08-23T10:01:52.336Z,1001.43219
2022-08-23T10:02:48.912Z,1001.424316
2022-08-23T10:03:50.265Z,1001.424316
2022-08-23T10:04:46.685Z,1001.451416
2022-08-23T10:06:45.025Z,1001.359924
2022-08-23T10:07:49.021Z,1001.443115
2022-08-23T10:08:43.527Z,1001.380127
2022-08-23T10:09:47.201Z,1001.447083
2022-08-23T10:11:42.851Z,1001.396179
2022-08-23T10:12:39.460Z,1001.404053
2022-08-23T10:13:41.380Z,1001.390137
2022-08-23T10:15:05.650Z,1001.347046
2022-08-23T10:16:44.425Z,1001.384033
2022-08-23T10:17:44.917Z,1001.407959
2022-08-23T10:18:41.014Z,1001.353821
2022-08-23T10:19:40.944Z,1001.372986
2022-08-23T10:20:37.048Z,1001.417175
2022-08-23T10:21:36.999Z,1001.417175
2022-08-23T10:22:32.810Z,1001.363098
2022-08-23T10:23:35.934Z,1001.363098
2022-08-23T10:24:30.268Z,1001.32782
2022-08-23T10:25:27.859Z,1001.369141
2022-08-23T10:27:24.101Z,1001.391235
2022-08-23T10:28:26.230Z,1001.344971
2022-08-23T10:29:19.120Z,1001.399048
2022-08-23T10:30:17.114Z,1001.372009
2022-08-23T10:31:14.758Z,1001.359192
2022-08-23T10:32:13.094Z,1001.316101
2022-08-23T10:33:10.716Z,1001.397217
2022-08-23T10:33:18.698Z,1001.397217
2022-08-23T10:34:11.338Z,1001.340027
2022-08-23T10:35:07.124Z,1001.380127
2022-08-23T10:37:04.801Z,1001.383057
2022-08-23T10:38:00.912Z,1001.328918
2022-08-23T10:39:03.312Z,1001.375183
2022-08-23T10:40:00.322Z,1001.410095
2022-08-23T10:40:04.144Z,1001.410095
2022-08-23T10:43:49.664Z,1001.288574
2022-08-23T10:44:11.407Z,1001.373596
2022-08-23T10:45:13.277Z,1001.374146
2022-08-23T10:47:11.355Z,1001.310181
2022-08-23T10:48:08.498Z,1001.3703
2022-08-23T10:49:09.498Z,1001.338257
2022-08-23T10:50:06.300Z,1001.266418
2022-08-23T10:52:07.065Z,1001.278564
2022-08-23T10:53:04.181Z,1001.294678
2022-08-23T10:54:05.133Z,1001.337646
2022-08-23T10:55:01.823Z,1001.262634
2022-08-23T10:56:03.158Z,1001.314697
2022-08-23T10:56:59.482Z,1001.298584
2022-08-23T10:58:03.445Z,1001.247742
2022-08-23T10:58:57.770Z,1001.27478
2022-08-23T10:59:58.759Z,1001.298584
2022-08-23T11:00:55.991Z,1001.269836
2022-08-23T11:01:57.347Z,1001.253723
2022-08-23T11:02:53.804Z,1001.272644
2022-08-23T11:03:57.427Z,1001.261658
2022-08-23T11:04:51.748Z,1001.261658
2022-08-23T11:05:52.774Z,1001.240601
2022-08-23T11:06:49.117Z,1001.175476
2022-08-23T11:07:51.396Z,1001.180481
2022-08-23T11:08:48.235Z,1001.166565
2022-08-23T11:09:52.156Z,1001.209595
2022-08-23T11:10:56.101Z,1001.231689
2022-08-23T11:10:56.118Z,1001.231689
2022-08-23T11:10:57.137Z,1001.231689
2022-08-23T11:12:47.593Z,1001.205322
2022-08-23T11:13:44.267Z,1001.161072
2022-08-23T11:14:48.778Z,1001.153259
2022-08-23T11:15:44.605Z,1001.21344
2022-08-23T11:16:44.175Z,1001.078186
2022-08-23T11:17:40.682Z,1001.178284
2022-08-23T11:18:44.942Z,1001.19751
2022-08-23T11:19:38.931Z,1001.162292
2022-08-23T11:20:42.812Z,1001.165466
2022-08-23T11:22:37.990Z,1001.076111
2022-08-23T11:23:34.492Z,1001.141235
2022-08-23T11:24:35.571Z,1001.14447
2022-08-23T11:25:34.662Z,1001.193604
2022-08-23T11:26:38.424Z,1001.177673
2022-08-23T11:27:32.931Z,1001.142395
2022-08-23T11:28:36.790Z,1001.150574
2022-08-23T11:30:14.369Z,1001.122314